createdAt,value
2019-05-18T00:00:04.222Z,0.00
2019-05-18T00:01:04.206Z,0.00
2019-05-18T00:02:04.195Z,0.00
2019-05-18T00:03:04.187Z,0.00
2019-05-18T00:04:04.172Z,0.00
2019-05-18T00:05:04.160Z,0.00
2019-05-18T00:06:04.154Z,0.00
2019-05-18T00:07:04.141Z,0.00
2019-05-18T00:08:04.129Z,0.00
2019-05-18T00:09:04.126Z,0.00
2019-05-18T00:10:04.106Z,0.00
2019-05-18T00:11:04.093Z,0.00
2019-05-18T00:12:04.093Z,0.00
2019-05-18T00:13:04.077Z,0.00
2019-05-18T00:14:04.062Z,0.00
2019-05-18T00:15:04.050Z,0.00
2019-05-18T00:16:04.045Z,0.00
2019-05-18T00:17:04.028Z,0.00
2019-05-18T00:18:04.018Z,0.00
2019-05-18T00:19:04.006Z,0.00
2019-05-18T00:20:03.993Z,0.00
2019-05-18T00:21:03.985Z,0.00
2019-05-18T00:22:03.973Z,0.00
2019-05-18T00:23:03.965Z,0.00
2019-05-18T00:24:03.963Z,0.00
2019-05-18T00:25:03.942Z,0.00
2019-05-18T00:26:03.930Z,0.00
2019-05-18T00:27:03.918Z,0.00
2019-05-18T00:28:03.909Z,0.00
2019-05-18T00:29:03.899Z,0.00
2019-05-18T00:30:03.884Z,0.00
2019-05-18T00:31:03.874Z,0.00
2019-05-18T00:32:03.919Z,0.00
2019-05-18T00:33:03.851Z,0.00
2019-05-18T00:34:03.843Z,0.00
2019-05-18T00:35:03.831Z,0.00
2019-05-18T00:36:03.821Z,0.00
2019-05-18T00:37:03.804Z,0.00
2019-05-18T00:38:03.797Z,0.00
2019-05-18T00:39:03.782Z,0.00
2019-05-18T00:40:03.790Z,0.00
2019-05-18T00:41:03.766Z,0.00
2019-05-18T00:42:03.751Z,0.00
2019-05-18T00:43:03.737Z,0.00
2019-05-18T00:44:03.735Z,0.00
2019-05-18T00:45:03.722Z,0.00
2019-05-18T00:46:03.712Z,0.00
2019-05-18T00:47:03.700Z,0.00
2019-05-18T00:48:03.688Z,0.00
2019-05-18T00:49:03.672Z,0.00
2019-05-18T00:50:03.663Z,0.00
2019-05-18T00:51:03.678Z,0.00
2019-05-18T00:52:03.638Z,0.00
2019-05-18T00:53:03.626Z,0.00
2019-05-18T00:54:03.619Z,0.00
2019-05-18T00:55:03.610Z,0.00
2019-05-18T00:56:03.610Z,0.00
2019-05-18T00:57:03.583Z,0.00
2019-05-18T00:58:03.570Z,0.00
2019-05-18T00:59:03.580Z,0.00
2019-05-18T01:00:03.549Z,0.00
2019-05-18T01:01:03.542Z,0.00
2019-05-18T01:02:03.524Z,0.00
2019-05-18T01:03:03.521Z,0.00
2019-05-18T01:04:03.502Z,0.00
2019-05-18T01:05:03.496Z,0.00
2019-05-18T01:06:03.482Z,0.00
2019-05-18T01:07:03.470Z,0.00
2019-05-18T01:08:03.459Z,0.00
2019-05-18T01:09:03.449Z,0.00
2019-05-18T01:10:03.438Z,0.00
2019-05-18T01:11:03.425Z,0.00
2019-05-18T01:12:03.417Z,0.00
2019-05-18T01:13:03.413Z,0.00
2019-05-18T01:14:03.395Z,0.00
2019-05-18T01:15:03.384Z,0.00
2019-05-18T01:16:03.371Z,0.00
2019-05-18T01:17:03.358Z,0.00
2019-05-18T01:18:03.349Z,0.00
2019-05-18T01:19:03.335Z,0.00
2019-05-18T01:20:03.327Z,0.00
2019-05-18T01:21:03.319Z,0.00
2019-05-18T01:22:03.304Z,0.00
2019-05-18T01:23:03.292Z,0.00
2019-05-18T01:24:03.287Z,0.00
2019-05-18T01:25:03.267Z,0.00
2019-05-18T01:26:03.260Z,0.00
2019-05-18T01:27:03.248Z,0.00
2019-05-18T01:28:03.238Z,0.00
2019-05-18T01:29:03.238Z,0.00
2019-05-18T01:30:03.241Z,0.00
2019-05-18T01:31:03.204Z,0.00
2019-05-18T01:32:03.196Z,0.00
2019-05-18T01:33:03.180Z,0.00
2019-05-18T01:34:03.172Z,0.00
2019-05-18T01:35:03.157Z,0.00
2019-05-18T01:36:03.146Z,0.00
2019-05-18T01:37:03.137Z,0.00
2019-05-18T01:38:03.164Z,0.00
2019-05-18T01:39:03.118Z,0.00
2019-05-18T01:40:03.102Z,0.00
2019-05-18T01:41:03.089Z,0.00
2019-05-18T01:42:03.082Z,0.00
2019-05-18T01:43:03.067Z,0.00
2019-05-18T01:44:03.054Z,0.00
2019-05-18T01:45:15.742Z,0.00
2019-05-18T01:46:04.034Z,0.00
2019-05-18T01:47:03.026Z,0.00
2019-05-18T01:48:13.444Z,0.00
2019-05-18T01:49:04.011Z,0.00
2019-05-18T01:50:02.994Z,0.00
2019-05-18T01:51:02.977Z,0.00
2019-05-18T01:52:03.005Z,0.00
2019-05-18T01:53:02.962Z,0.00
2019-05-18T01:54:02.946Z,0.00
2019-05-18T01:55:02.936Z,0.00
2019-05-18T01:56:02.923Z,0.00
2019-05-18T01:57:02.923Z,0.00
2019-05-18T01:58:02.900Z,0.00
2019-05-18T01:59:02.891Z,0.00
2019-05-18T02:00:03.055Z,0.00
2019-05-18T02:01:02.867Z,0.00
2019-05-18T02:02:02.872Z,0.00
2019-05-18T02:03:02.859Z,0.00
2019-05-18T02:04:02.829Z,0.00
2019-05-18T02:05:02.826Z,0.00
2019-05-18T02:06:02.815Z,0.00
2019-05-18T02:07:02.821Z,0.00
2019-05-18T02:08:02.791Z,0.00
2019-05-18T02:09:02.775Z,0.00
2019-05-18T02:10:02.825Z,0.00
2019-05-18T02:11:02.769Z,0.00
2019-05-18T02:12:02.743Z,0.00
2019-05-18T02:13:02.982Z,0.00
2019-05-18T02:14:02.732Z,0.00
2019-05-18T02:15:02.763Z,0.00
2019-05-18T02:16:02.708Z,0.00
2019-05-18T02:17:02.688Z,0.00
2019-05-18T02:18:02.685Z,0.00
2019-05-18T02:19:02.668Z,0.00
2019-05-18T02:20:02.656Z,0.00
2019-05-18T02:21:02.646Z,0.00
2019-05-18T02:22:02.629Z,0.00
2019-05-18T02:23:02.622Z,0.00
2019-05-18T02:24:02.625Z,0.00
2019-05-18T02:25:02.604Z,0.00
2019-05-18T02:26:02.587Z,0.00
2019-05-18T02:27:02.578Z,0.00
2019-05-18T02:28:02.566Z,0.00
2019-05-18T02:29:02.556Z,0.00
2019-05-18T02:30:02.561Z,0.00
2019-05-18T02:31:02.535Z,0.00
2019-05-18T02:32:02.522Z,0.00
2019-05-18T02:33:02.534Z,0.00
2019-05-18T02:34:02.506Z,0.00
2019-05-18T02:35:02.494Z,0.00
2019-05-18T02:36:02.479Z,0.00
2019-05-18T02:37:02.469Z,0.00
2019-05-18T02:38:02.460Z,0.00
2019-05-18T02:39:02.442Z,0.00
2019-05-18T02:40:02.444Z,0.00
2019-05-18T02:41:02.426Z,0.00
2019-05-18T02:42:02.409Z,0.00
2019-05-18T02:43:02.407Z,0.00
2019-05-18T02:44:02.392Z,0.00
2019-05-18T02:45:02.409Z,0.00
2019-05-18T02:46:02.364Z,0.00
2019-05-18T02:47:02.377Z,0.00
2019-05-18T02:48:02.347Z,0.00
2019-05-18T02:49:02.356Z,0.00
2019-05-18T02:50:02.323Z,0.00
2019-05-18T02:51:02.311Z,0.00
2019-05-18T02:52:02.301Z,0.00
2019-05-18T02:53:02.289Z,0.00
2019-05-18T02:54:02.274Z,0.00
2019-05-18T02:55:02.267Z,0.00
2019-05-18T02:56:02.258Z,0.00
2019-05-18T02:57:02.245Z,0.00
2019-05-18T02:58:02.232Z,0.00
2019-05-18T02:59:02.230Z,0.00
2019-05-18T03:00:02.215Z,0.00
2019-05-18T03:01:02.209Z,0.00
2019-05-18T03:02:02.190Z,0.00
2019-05-18T03:03:02.179Z,0.00
2019-05-18T03:04:02.184Z,0.00
2019-05-18T03:05:02.160Z,0.00
2019-05-18T03:06:02.147Z,0.00
2019-05-18T03:07:02.134Z,0.00
2019-05-18T03:08:02.124Z,0.00
2019-05-18T03:09:02.113Z,0.00
2019-05-18T03:10:02.101Z,0.00
2019-05-18T03:11:02.089Z,0.00
2019-05-18T03:12:02.076Z,0.00
2019-05-18T03:13:02.087Z,0.00
2019-05-18T03:14:02.058Z,0.00
2019-05-18T03:15:02.053Z,0.00
2019-05-18T03:16:02.056Z,0.00
2019-05-18T03:17:02.027Z,4.00
2019-05-18T03:18:02.011Z,4.00
2019-05-18T03:19:08.189Z,4.00
2019-05-18T03:20:03.005Z,0.00
2019-05-18T03:21:01.974Z,4.00
2019-05-18T03:22:01.979Z,4.00
2019-05-18T03:23:01.965Z,8.00
2019-05-18T03:24:01.942Z,4.00
2019-05-18T03:25:01.935Z,8.00
2019-05-18T03:26:01.928Z,8.00
2019-05-18T03:27:01.917Z,8.00
2019-05-18T03:28:01.907Z,12.00
2019-05-18T03:29:01.890Z,12.00
2019-05-18T03:30:01.935Z,16.00
2019-05-18T03:31:01.865Z,16.00
2019-05-18T03:32:01.879Z,20.00
2019-05-18T03:33:01.860Z,24.00
2019-05-18T03:34:01.837Z,28.00
2019-05-18T03:35:01.886Z,24.00
2019-05-18T03:36:01.821Z,32.00
2019-05-18T03:37:01.803Z,32.00
2019-05-18T03:38:01.794Z,32.00
2019-05-18T03:39:01.777Z,36.00
2019-05-18T03:40:01.770Z,40.00
2019-05-18T03:41:01.751Z,40.00
2019-05-18T03:42:01.751Z,44.00
2019-05-18T03:43:01.733Z,48.00
2019-05-18T03:44:01.727Z,52.00
2019-05-18T03:45:01.719Z,56.00
2019-05-18T03:46:01.696Z,60.00
2019-05-18T03:47:01.689Z,72.00
2019-05-18T03:48:01.680Z,76.00
2019-05-18T03:49:01.664Z,88.00
2019-05-18T03:50:01.657Z,100.00
2019-05-18T03:51:01.642Z,112.00
2019-05-18T03:52:01.648Z,128.00
2019-05-18T03:53:01.625Z,148.00
2019-05-18T03:54:01.612Z,172.00
2019-05-18T03:55:01.628Z,196.00
2019-05-18T03:56:01.584Z,220.00
2019-05-18T03:57:01.580Z,244.00
2019-05-18T03:58:01.567Z,272.00
2019-05-18T03:59:01.556Z,308.00
2019-05-18T04:00:01.539Z,344.00
2019-05-18T04:01:01.538Z,384.00
2019-05-18T04:02:01.521Z,416.00
2019-05-18T04:03:01.514Z,440.00
2019-05-18T04:04:01.497Z,444.00
2019-05-18T04:05:01.486Z,424.00
2019-05-18T04:06:01.502Z,404.00
2019-05-18T04:07:01.464Z,388.00
2019-05-18T04:08:01.451Z,380.00
2019-05-18T04:09:01.443Z,380.00
2019-05-18T04:10:01.464Z,388.00
2019-05-18T04:11:01.435Z,392.00
2019-05-18T04:12:01.415Z,396.00
2019-05-18T04:13:01.399Z,408.00
2019-05-18T04:14:01.389Z,420.00
2019-05-18T04:15:01.378Z,428.00
2019-05-18T04:16:01.363Z,432.00
2019-05-18T04:17:01.357Z,436.00
2019-05-18T04:18:01.342Z,424.00
2019-05-18T04:19:01.332Z,404.00
2019-05-18T04:20:01.319Z,396.00
2019-05-18T04:21:01.308Z,408.00
2019-05-18T04:22:01.299Z,440.00
2019-05-18T04:23:01.292Z,484.00
2019-05-18T04:24:01.279Z,512.00
2019-05-18T04:25:01.265Z,544.00
2019-05-18T04:26:01.255Z,592.00
2019-05-18T04:27:01.247Z,648.00
2019-05-18T04:28:01.233Z,708.00
2019-05-18T04:29:01.224Z,768.00
2019-05-18T04:30:01.212Z,840.00
2019-05-18T04:31:01.201Z,904.00
2019-05-18T04:32:01.186Z,956.00
2019-05-18T04:33:01.183Z,1004.00
2019-05-18T04:34:01.167Z,1112.00
2019-05-18T04:35:01.156Z,1264.00
2019-05-18T04:36:01.219Z,1376.00
2019-05-18T04:37:01.139Z,1444.00
2019-05-18T04:38:01.126Z,1516.00
2019-05-18T04:39:01.114Z,1620.00
2019-05-18T04:40:01.149Z,1708.00
2019-05-18T04:41:01.107Z,1724.00
2019-05-18T04:42:01.081Z,1740.00
2019-05-18T04:43:01.069Z,1800.00
2019-05-18T04:44:01.061Z,1876.00
2019-05-18T04:45:01.046Z,2012.00
2019-05-18T04:46:01.037Z,2212.00
2019-05-18T04:47:01.034Z,2428.00
2019-05-18T04:48:01.013Z,2648.00
2019-05-18T04:49:01.002Z,2912.00
2019-05-18T04:50:05.293Z,3076.00
2019-05-18T04:51:01.975Z,3204.00
2019-05-18T04:52:00.968Z,3312.00
2019-05-18T04:53:00.959Z,3416.00
2019-05-18T04:54:00.946Z,3616.00
2019-05-18T04:55:00.945Z,3816.00
2019-05-18T04:56:00.924Z,3952.00
2019-05-18T04:57:00.914Z,4132.00
2019-05-18T04:58:00.900Z,4360.00
2019-05-18T04:59:00.888Z,4788.00
2019-05-18T05:00:00.877Z,5468.00
2019-05-18T05:01:00.874Z,6428.00
2019-05-18T05:02:00.875Z,8460.00
2019-05-18T05:03:00.850Z,7924.00
2019-05-18T05:04:00.977Z,9892.00
2019-05-18T05:05:00.823Z,8088.00
2019-05-18T05:06:00.814Z,12528.00
2019-05-18T05:07:00.803Z,8652.00
2019-05-18T05:08:00.797Z,9236.00
2019-05-18T05:09:00.778Z,10020.00
2019-05-18T05:10:00.765Z,15840.00
2019-05-18T05:11:00.756Z,12936.00
2019-05-18T05:12:00.746Z,12156.00
2019-05-18T05:13:00.826Z,12732.00
2019-05-18T05:14:00.735Z,12864.00
2019-05-18T05:15:00.713Z,12664.00
2019-05-18T05:16:00.703Z,11420.00
2019-05-18T05:17:00.685Z,9932.00
2019-05-18T05:18:00.678Z,8160.00
2019-05-18T05:19:00.667Z,6928.00
2019-05-18T05:20:00.660Z,6148.00
2019-05-18T05:21:00.643Z,5908.00
2019-05-18T05:22:00.636Z,6136.00
2019-05-18T05:23:00.622Z,6668.00
2019-05-18T05:24:00.686Z,7140.00
2019-05-18T05:25:00.602Z,7468.00
2019-05-18T05:26:00.584Z,7700.00
2019-05-18T05:27:00.592Z,6176.00
2019-05-18T05:28:00.566Z,5440.00
2019-05-18T05:29:00.566Z,5016.00
2019-05-18T05:30:00.542Z,4984.00
2019-05-18T05:31:00.540Z,5228.00
2019-05-18T05:32:00.535Z,5736.00
2019-05-18T05:33:00.515Z,6156.00
2019-05-18T05:34:00.534Z,6384.00
2019-05-18T05:35:00.496Z,6416.00
2019-05-18T05:36:00.537Z,6376.00
2019-05-18T05:37:00.483Z,6724.00
2019-05-18T05:38:00.471Z,7248.00
2019-05-18T05:39:00.451Z,8084.00
2019-05-18T05:40:00.440Z,9372.00
2019-05-18T05:41:00.417Z,10744.00
2019-05-18T05:42:00.412Z,11264.00
2019-05-18T05:43:00.398Z,10804.00
2019-05-18T05:44:00.390Z,9892.00
2019-05-18T05:45:00.381Z,8900.00
2019-05-18T05:46:00.367Z,8596.00
2019-05-18T05:47:00.358Z,8760.00
2019-05-18T05:48:00.343Z,8620.00
2019-05-18T05:49:00.330Z,8192.00
2019-05-18T05:50:00.330Z,7264.00
2019-05-18T05:51:00.308Z,6396.00
2019-05-18T05:52:00.302Z,5700.00
2019-05-18T05:53:00.289Z,5348.00
2019-05-18T05:54:00.278Z,5132.00
2019-05-18T05:55:00.263Z,4932.00
2019-05-18T05:56:00.255Z,4924.00
2019-05-18T05:57:00.240Z,5192.00
2019-05-18T05:58:00.232Z,5540.00
2019-05-18T05:59:00.226Z,5884.00
2019-05-18T06:00:00.211Z,6368.00
2019-05-18T06:01:00.206Z,6832.00
2019-05-18T06:02:00.189Z,7484.00
2019-05-18T06:03:00.186Z,8108.00
2019-05-18T06:04:00.168Z,9036.00
2019-05-18T06:05:00.152Z,10056.00
2019-05-18T06:06:00.138Z,11084.00
2019-05-18T06:07:00.145Z,11772.00
2019-05-18T06:08:00.119Z,12436.00
2019-05-18T06:09:00.118Z,12968.00
2019-05-18T06:10:00.121Z,12928.00
2019-05-18T06:11:00.099Z,12584.00
2019-05-18T06:12:00.078Z,12344.00
2019-05-18T06:13:00.062Z,12120.00
2019-05-18T06:14:00.058Z,11884.00
2019-05-18T06:15:00.040Z,12068.00
2019-05-18T06:16:00.035Z,12952.00
2019-05-18T06:17:00.028Z,13756.00
2019-05-18T06:18:00.010Z,14164.00
2019-05-18T06:18:59.994Z,14448.00
2019-05-18T06:19:59.981Z,14540.00
2019-05-18T06:20:59.973Z,14532.00
2019-05-18T06:21:59.963Z,14312.00
2019-05-18T06:22:59.955Z,13944.00
2019-05-18T06:23:59.938Z,13168.00
2019-05-18T06:24:59.937Z,13056.00
2019-05-18T06:25:59.921Z,13788.00
2019-05-18T06:26:59.906Z,14836.00
2019-05-18T06:27:59.901Z,15628.00
2019-05-18T06:28:59.885Z,16456.00
2019-05-18T06:29:59.876Z,17344.00
2019-05-18T06:30:59.859Z,17824.00
2019-05-18T06:31:59.851Z,17632.00
2019-05-18T06:32:59.841Z,17408.00
2019-05-18T06:33:59.829Z,17376.00
2019-05-18T06:34:59.830Z,16992.00
2019-05-18T06:35:59.812Z,15764.00
2019-05-18T06:36:59.802Z,14208.00
2019-05-18T06:37:59.796Z,12676.00
2019-05-18T06:38:59.775Z,11956.00
2019-05-18T06:39:59.759Z,11972.00
2019-05-18T06:40:59.773Z,11832.00
2019-05-18T06:41:59.759Z,11392.00
2019-05-18T06:42:59.727Z,11192.00
2019-05-18T06:43:59.720Z,11212.00
2019-05-18T06:44:59.715Z,11152.00
2019-05-18T06:45:59.700Z,11028.00
2019-05-18T06:46:59.681Z,10784.00
2019-05-18T06:47:59.687Z,10376.00
2019-05-18T06:48:59.671Z,9828.00
2019-05-18T06:49:59.655Z,9396.00
2019-05-18T06:51:07.287Z,9240.00
2019-05-18T06:52:00.641Z,9064.00
2019-05-18T06:52:59.618Z,8980.00
2019-05-18T06:53:59.620Z,8784.00
2019-05-18T06:54:59.598Z,8416.00
2019-05-18T06:55:59.588Z,7920.00
2019-05-18T06:56:59.572Z,7456.00
2019-05-18T06:57:59.571Z,7112.00
2019-05-18T06:58:59.556Z,6816.00
2019-05-18T06:59:59.545Z,6520.00
2019-05-18T07:00:59.535Z,6064.00
2019-05-18T07:01:59.520Z,5584.00
2019-05-18T07:02:59.520Z,5252.00
2019-05-18T07:03:59.505Z,5124.00
2019-05-18T07:04:59.485Z,5104.00
2019-05-18T07:05:59.472Z,5220.00
2019-05-18T07:06:59.464Z,5376.00
2019-05-18T07:07:59.446Z,5540.00
2019-05-18T07:08:59.479Z,5584.00
2019-05-18T07:09:59.449Z,5488.00
2019-05-18T07:10:59.414Z,5348.00
2019-05-18T07:11:59.406Z,5160.00
2019-05-18T07:12:59.393Z,4976.00
2019-05-18T07:13:59.461Z,4892.00
2019-05-18T07:15:00.517Z,4936.00
2019-05-18T07:15:59.363Z,5004.00
2019-05-18T07:16:59.373Z,5016.00
2019-05-18T07:17:59.339Z,4984.00
2019-05-18T07:18:59.326Z,4980.00
2019-05-18T07:19:59.317Z,4980.00
2019-05-18T07:20:59.307Z,5008.00
2019-05-18T07:21:59.549Z,5092.00
2019-05-18T07:22:59.284Z,5244.00
2019-05-18T07:23:59.268Z,5456.00
2019-05-18T07:24:59.263Z,5596.00
2019-05-18T07:25:59.258Z,5672.00
2019-05-18T07:26:59.418Z,5744.00
2019-05-18T07:27:59.229Z,5828.00
2019-05-18T07:28:59.218Z,5916.00
2019-05-18T07:29:59.215Z,5996.00
2019-05-18T07:30:59.193Z,6116.00
2019-05-18T07:31:59.396Z,6252.00
2019-05-18T07:32:59.185Z,6336.00
2019-05-18T07:33:59.168Z,6324.00
2019-05-18T07:34:59.150Z,6272.00
2019-05-18T07:35:59.146Z,6252.00
2019-05-18T07:36:59.130Z,6312.00
2019-05-18T07:37:59.118Z,6452.00
2019-05-18T07:38:59.106Z,6724.00
2019-05-18T07:39:59.123Z,7120.00
2019-05-18T07:40:59.083Z,7584.00
2019-05-18T07:41:59.069Z,8020.00
2019-05-18T07:42:59.062Z,8368.00
2019-05-18T07:43:59.058Z,8648.00
2019-05-18T07:44:59.038Z,8872.00
2019-05-18T07:45:59.025Z,9028.00
2019-05-18T07:46:59.037Z,9132.00
2019-05-18T07:47:59.008Z,9192.00
2019-05-18T07:48:58.995Z,9252.00
2019-05-18T07:49:58.989Z,9396.00
2019-05-18T07:50:58.972Z,9652.00
2019-05-18T07:51:58.968Z,9988.00
2019-05-18T07:52:58.952Z,10344.00
2019-05-18T07:53:58.938Z,10736.00
2019-05-18T07:54:58.928Z,11388.00
2019-05-18T07:55:58.916Z,12232.00
2019-05-18T07:56:58.914Z,13212.00
2019-05-18T07:57:58.936Z,14324.00
2019-05-18T07:58:58.895Z,15292.00
2019-05-18T07:59:58.906Z,16088.00
2019-05-18T08:00:58.867Z,16732.00
2019-05-18T08:01:58.852Z,16864.00
2019-05-18T08:02:58.841Z,16296.00
2019-05-18T08:03:58.833Z,15528.00
2019-05-18T08:04:58.814Z,14976.00
2019-05-18T08:05:58.814Z,14628.00
2019-05-18T08:06:58.793Z,14432.00
2019-05-18T08:07:58.782Z,14388.00
2019-05-18T08:08:58.774Z,14748.00
2019-05-18T08:09:58.765Z,15760.00
2019-05-18T08:10:58.765Z,17312.00
2019-05-18T08:11:58.738Z,18368.00
2019-05-18T08:12:58.733Z,19008.00
2019-05-18T08:13:58.711Z,18944.00
2019-05-18T08:14:58.706Z,17440.00
2019-05-18T08:15:58.697Z,14556.00
2019-05-18T08:16:58.684Z,12204.00
2019-05-18T08:17:58.670Z,10816.00
2019-05-18T08:18:58.661Z,9908.00
2019-05-18T08:19:58.647Z,8940.00
2019-05-18T08:20:58.650Z,8128.00
2019-05-18T08:21:58.637Z,7644.00
2019-05-18T08:22:58.614Z,7668.00
2019-05-18T08:23:58.602Z,8132.00
2019-05-18T08:24:58.593Z,8876.00
2019-05-18T08:25:58.579Z,9624.00
2019-05-18T08:27:01.985Z,10128.00
2019-05-18T08:27:58.587Z,10368.00
2019-05-18T08:28:58.548Z,10388.00
2019-05-18T08:29:58.541Z,10072.00
2019-05-18T08:30:58.524Z,9504.00
2019-05-18T08:31:58.523Z,9132.00
2019-05-18T08:32:58.503Z,9204.00
2019-05-18T08:33:58.493Z,9832.00
2019-05-18T08:34:58.487Z,10804.00
2019-05-18T08:35:58.465Z,11616.00
2019-05-18T08:36:58.450Z,11956.00
2019-05-18T08:37:58.458Z,12072.00
2019-05-18T08:38:58.450Z,12108.00
2019-05-18T08:39:58.425Z,12088.00
2019-05-18T08:40:58.425Z,11652.00
2019-05-18T08:41:58.403Z,11328.00
2019-05-18T08:42:58.388Z,11428.00
2019-05-18T08:43:58.396Z,11572.00
2019-05-18T08:44:58.368Z,11908.00
2019-05-18T08:45:58.376Z,12412.00
2019-05-18T08:46:58.380Z,12872.00
2019-05-18T08:47:58.341Z,12864.00
2019-05-18T08:48:58.323Z,12364.00
2019-05-18T08:49:58.310Z,11776.00
2019-05-18T08:50:58.302Z,11128.00
2019-05-18T08:52:07.773Z,10552.00
2019-05-18T08:52:59.277Z,10352.00
2019-05-18T08:53:58.265Z,10244.00
2019-05-18T08:54:58.254Z,9964.00
2019-05-18T08:55:58.239Z,10084.00
2019-05-18T08:56:58.252Z,10748.00
2019-05-18T08:57:58.223Z,11404.00
2019-05-18T08:58:58.213Z,11476.00
2019-05-18T08:59:58.213Z,10912.00
2019-05-18T09:00:58.183Z,9812.00
2019-05-18T09:01:58.178Z,9044.00
2019-05-18T09:02:58.158Z,9228.00
2019-05-18T09:03:58.153Z,9644.00
2019-05-18T09:04:58.153Z,9684.00
2019-05-18T09:05:58.135Z,9868.00
2019-05-18T09:06:58.121Z,9884.00
2019-05-18T09:07:58.112Z,9456.00
2019-05-18T09:08:58.095Z,9076.00
2019-05-18T09:09:58.085Z,8800.00
2019-05-18T09:10:58.078Z,8900.00
2019-05-18T09:11:58.060Z,10516.00
2019-05-18T09:12:58.051Z,13600.00
2019-05-18T09:13:58.052Z,17280.00
2019-05-18T09:14:58.025Z,19840.00
2019-05-18T09:15:58.023Z,21152.00
2019-05-18T09:16:58.006Z,21984.00
2019-05-18T09:17:57.997Z,22848.00
2019-05-18T09:18:57.979Z,23872.00
2019-05-18T09:19:57.986Z,24864.00
2019-05-18T09:20:57.958Z,25472.00
2019-05-18T09:21:57.955Z,25408.00
2019-05-18T09:22:57.938Z,24608.00
2019-05-18T09:23:57.945Z,23360.00
2019-05-18T09:24:57.917Z,22368.00
2019-05-18T09:25:57.900Z,21824.00
2019-05-18T09:26:57.899Z,21504.00
2019-05-18T09:28:33.937Z,21216.00
2019-05-18T09:28:57.871Z,20960.00
2019-05-18T09:29:57.856Z,21024.00
2019-05-18T09:30:57.854Z,21248.00
2019-05-18T09:31:57.850Z,21216.00
2019-05-18T09:32:57.831Z,20640.00
2019-05-18T09:33:57.816Z,19840.00
2019-05-18T09:34:57.812Z,19424.00
2019-05-18T09:35:57.799Z,19424.00
2019-05-18T09:36:57.781Z,19456.00
2019-05-18T09:37:57.779Z,19168.00
2019-05-18T09:38:57.789Z,18560.00
2019-05-18T09:39:57.759Z,17920.00
2019-05-18T09:40:57.752Z,16960.00
2019-05-18T09:41:57.727Z,15420.00
2019-05-18T09:42:57.715Z,15240.00
2019-05-18T09:43:57.709Z,14916.00
2019-05-18T09:44:57.699Z,13748.00
2019-05-18T09:45:57.681Z,12904.00
2019-05-18T09:46:57.666Z,12220.00
2019-05-18T09:47:57.659Z,12144.00
2019-05-18T09:48:57.658Z,11600.00
2019-05-18T09:49:57.644Z,10928.00
2019-05-18T09:50:57.632Z,10668.00
2019-05-18T09:51:57.619Z,10968.00
2019-05-18T09:52:57.619Z,11848.00
2019-05-18T09:53:57.625Z,13252.00
2019-05-18T09:54:57.594Z,14440.00
2019-05-18T09:55:57.582Z,14636.00
2019-05-18T09:56:57.566Z,14128.00
2019-05-18T09:57:57.551Z,13476.00
2019-05-18T09:58:57.559Z,13160.00
2019-05-18T09:59:57.533Z,13704.00
2019-05-18T10:00:57.540Z,15148.00
2019-05-18T10:01:57.503Z,17280.00
2019-05-18T10:02:57.495Z,19136.00
2019-05-18T10:03:57.488Z,20672.00
2019-05-18T10:04:57.480Z,21728.00
2019-05-18T10:05:57.470Z,21856.00
2019-05-18T10:06:57.454Z,21408.00
2019-05-18T10:07:57.438Z,20928.00
2019-05-18T10:08:57.437Z,21408.00
2019-05-18T10:09:57.449Z,22912.00
2019-05-18T10:10:57.422Z,24992.00
2019-05-18T10:11:57.401Z,26976.00
2019-05-18T10:12:57.381Z,28608.00
2019-05-18T10:13:57.368Z,29600.00
2019-05-18T10:14:57.370Z,29152.00
2019-05-18T10:15:57.355Z,27456.00
2019-05-18T10:16:57.348Z,25728.00
2019-05-18T10:17:57.334Z,24928.00
2019-05-18T10:18:57.316Z,24960.00
2019-05-18T10:19:57.326Z,24896.00
2019-05-18T10:20:57.322Z,25120.00
2019-05-18T10:21:57.320Z,25792.00
2019-05-18T10:23:11.875Z,27136.00
2019-05-18T10:23:58.264Z,28320.00
2019-05-18T10:24:57.253Z,29088.00
2019-05-18T10:25:57.244Z,28992.00
2019-05-18T10:26:57.221Z,27232.00
2019-05-18T10:27:57.216Z,25792.00
2019-05-18T10:28:57.198Z,25376.00
2019-05-18T10:29:57.205Z,25408.00
2019-05-18T10:30:57.228Z,24960.00
2019-05-18T10:31:57.170Z,24544.00
2019-05-18T10:32:57.158Z,24640.00
2019-05-18T10:33:57.152Z,24928.00
2019-05-18T10:34:57.134Z,26016.00
2019-05-18T10:35:57.127Z,26528.00
2019-05-18T10:36:57.111Z,27616.00
2019-05-18T10:37:57.108Z,28832.00
2019-05-18T10:38:57.093Z,28224.00
2019-05-18T10:39:57.081Z,27328.00
2019-05-18T10:40:57.072Z,26912.00
2019-05-18T10:41:57.058Z,28288.00
2019-05-18T10:42:57.048Z,29856.00
2019-05-18T10:43:57.119Z,30432.00
2019-05-18T10:44:57.033Z,29536.00
2019-05-18T10:45:57.015Z,28320.00
2019-05-18T10:46:57.014Z,29216.00
2019-05-18T10:47:57.022Z,32448.00
2019-05-18T10:48:56.997Z,34304.00
2019-05-18T10:49:56.980Z,34784.00
2019-05-18T10:50:56.965Z,34688.00
2019-05-18T10:51:56.948Z,34112.00
2019-05-18T10:52:56.941Z,34304.00
2019-05-18T10:53:56.929Z,34784.00
2019-05-18T10:54:56.921Z,35136.00
2019-05-18T10:55:56.907Z,35712.00
2019-05-18T10:56:56.898Z,36608.00
2019-05-18T10:57:56.892Z,37728.00
2019-05-18T10:58:56.874Z,38848.00
2019-05-18T10:59:56.862Z,40000.00
2019-05-18T11:00:56.854Z,41376.00
2019-05-18T11:01:56.858Z,43296.00
2019-05-18T11:02:56.823Z,45088.00
2019-05-18T11:03:56.812Z,45888.00
2019-05-18T11:04:56.801Z,46880.00
2019-05-18T11:05:56.793Z,48192.00
2019-05-18T11:06:56.779Z,48672.00
2019-05-18T11:07:56.768Z,49632.00
2019-05-18T11:08:56.761Z,48800.00
2019-05-18T11:09:56.750Z,47072.00
2019-05-18T11:10:56.735Z,43488.00
2019-05-18T11:11:56.729Z,39392.00
2019-05-18T11:12:56.722Z,38400.00
2019-05-18T11:13:56.700Z,38432.00
2019-05-18T11:14:56.691Z,38656.00
2019-05-18T11:15:56.685Z,39392.00
2019-05-18T11:16:56.669Z,40640.00
2019-05-18T11:17:56.669Z,41344.00
2019-05-18T11:18:56.650Z,41728.00
2019-05-18T11:19:56.637Z,42144.00
2019-05-18T11:20:56.628Z,42784.00
2019-05-18T11:21:56.613Z,44320.00
2019-05-18T11:22:56.608Z,46560.00
2019-05-18T11:23:56.601Z,49440.00
2019-05-18T11:24:56.595Z,52576.00
2019-05-18T11:25:56.576Z,55808.00
2019-05-18T11:26:56.586Z,58496.00
2019-05-18T11:27:56.559Z,60832.00
2019-05-18T11:28:56.586Z,64992.00
2019-05-18T11:29:56.530Z,72736.00
2019-05-18T11:30:56.534Z,70880.00
2019-05-18T11:31:56.511Z,63584.00
2019-05-18T11:32:56.508Z,82912.00
2019-05-18T11:33:56.491Z,62880.00
2019-05-18T11:34:56.484Z,66528.00
2019-05-18T11:35:56.473Z,56448.00
2019-05-18T11:36:56.462Z,86432.00
2019-05-18T11:37:56.458Z,135840.00
2019-05-18T11:38:56.433Z,63776.00
2019-05-18T11:39:56.428Z,63392.00
2019-05-18T11:40:56.415Z,65568.00
2019-05-18T11:41:56.399Z,72864.00
2019-05-18T11:42:56.390Z,66688.00
2019-05-18T11:43:56.389Z,63744.00
2019-05-18T11:44:56.368Z,96608.00
2019-05-18T11:45:56.360Z,63712.00
2019-05-18T11:46:56.350Z,68480.00
2019-05-18T11:47:56.346Z,72480.00
2019-05-18T11:48:56.325Z,67776.00
2019-05-18T11:49:56.325Z,74400.00
2019-05-18T11:50:56.310Z,132864.00
2019-05-18T11:51:56.295Z,73216.00
2019-05-18T11:52:56.301Z,58688.00
2019-05-18T11:53:58.529Z,55744.00
2019-05-18T11:54:56.315Z,53280.00
2019-05-18T11:55:56.253Z,51328.00
2019-05-18T11:56:56.258Z,49728.00
2019-05-18T11:57:56.237Z,48256.00
2019-05-18T11:58:56.226Z,47168.00
2019-05-18T11:59:56.223Z,46368.00
2019-05-18T12:00:56.199Z,47360.00
2019-05-18T12:01:56.196Z,51392.00
2019-05-18T12:02:56.180Z,57664.00
2019-05-18T12:03:56.168Z,58464.00
2019-05-18T12:04:56.166Z,56608.00
2019-05-18T12:05:56.145Z,53088.00
2019-05-18T12:06:56.139Z,50720.00
2019-05-18T12:07:56.131Z,49600.00
2019-05-18T12:08:58.572Z,49184.00
2019-05-18T12:09:56.103Z,47392.00
2019-05-18T12:10:56.391Z,45824.00
2019-05-18T12:11:56.077Z,43616.00
2019-05-18T12:12:56.069Z,40448.00
2019-05-18T12:13:56.069Z,37408.00
2019-05-18T12:14:56.061Z,34816.00
2019-05-18T12:15:56.037Z,32416.00
2019-05-18T12:16:56.038Z,30272.00
2019-05-18T12:17:56.021Z,28512.00